createdAt,value
2022-09-06T00:02:06.002Z,100772.89
2022-09-06T00:04:36.770Z,100770.79
2022-09-06T00:07:07.722Z,100765.75
2022-09-06T00:09:38.445Z,100765.89
2022-09-06T00:12:09.669Z,100764.80
2022-09-06T00:14:40.411Z,100766.84
2022-09-06T00:17:11.264Z,100765.96
2022-09-06T00:19:41.947Z,100759.77
2022-09-06T00:22:12.623Z,100758.45
2022-09-06T00:24:43.564Z,100759.14
2022-09-06T00:27:14.313Z,100757.52
2022-09-06T00:29:45.121Z,100757.27
2022-09-06T00:32:16.029Z,100758.52
2022-09-06T00:34:46.742Z,100757.86
2022-09-06T00:37:17.492Z,100756.52
2022-09-06T00:39:48.277Z,100755.53
2022-09-06T00:42:19.085Z,100751.20
2022-09-06T00:44:51.043Z,100751.34
2022-09-06T00:47:22.122Z,100751.76
2022-09-06T00:49:56.114Z,100750.73
2022-09-06T00:52:28.735Z,100749.44
2022-09-06T00:54:59.913Z,100748.89
2022-09-06T00:57:32.278Z,100753.18
2022-09-06T01:00:05.361Z,100751.80
2022-09-06T01:02:36.312Z,100746.65
2022-09-06T01:05:09.242Z,100747.11
2022-09-06T01:08:03.762Z,100750.28
2022-09-06T01:10:57.123Z,100756.73
2022-09-06T01:13:38.631Z,100754.48
2022-09-06T01:16:17.311Z,100749.37
2022-09-06T01:19:15.427Z,100746.31
2022-09-06T01:21:55.595Z,100746.45
2022-09-06T01:24:44.524Z,100738.14
2022-09-06T01:27:45.158Z,100737.69
2022-09-06T01:30:19.647Z,100739.05
2022-09-06T01:32:57.299Z,100743.39
2022-09-06T01:35:35.205Z,100745.56
2022-09-06T01:38:07.552Z,100744.67
2022-09-06T01:40:38.243Z,100747.58
2022-09-06T01:43:12.913Z,100745.85
2022-09-06T01:45:55.355Z,100746.83
2022-09-06T01:48:38.550Z,100739.87
2022-09-06T01:51:19.295Z,100736.42
2022-09-06T01:54:17.676Z,100738.54
2022-09-06T01:57:00.524Z,100741.19
2022-09-06T01:59:45.047Z,100743.96
2022-09-06T02:02:21.453Z,100746.52
2022-09-06T02:04:58.432Z,100746.83
2022-09-06T02:07:32.219Z,100753.14
2022-09-06T02:10:08.903Z,100754.45
2022-09-06T02:12:42.957Z,100751.95
2022-09-06T02:15:16.175Z,100752.90
2022-09-06T02:17:54.812Z,100747.55
2022-09-06T02:20:32.046Z,100750.02
2022-09-06T02:23:06.879Z,100752.14
2022-09-06T02:25:40.783Z,100756.67
2022-09-06T02:28:12.178Z,100755.68
2022-09-06T02:30:47.402Z,100754.83
2022-09-06T02:33:21.900Z,100758.50
2022-09-06T02:35:55.186Z,100756.09
2022-09-06T02:38:28.008Z,100757.09
2022-09-06T02:40:59.565Z,100753.95
2022-09-06T02:43:30.512Z,100755.52
2022-09-06T02:46:01.305Z,100754.86
2022-09-06T02:48:32.064Z,100752.11
2022-09-06T02:51:06.826Z,100754.15
2022-09-06T02:53:38.573Z,100743.52
2022-09-06T02:56:09.554Z,100756.19
2022-09-06T02:58:40.238Z,100752.66
2022-09-06T03:01:11.128Z,100749.30
2022-09-06T03:03:42.439Z,100748.61
2022-09-06T03:06:13.204Z,100749.56
2022-09-06T03:08:43.927Z,100746.22
2022-09-06T03:11:14.979Z,100747.73
2022-09-06T03:13:45.699Z,100745.34
2022-09-06T03:16:16.415Z,100748.83
2022-09-06T03:18:47.496Z,100739.79
2022-09-06T03:21:18.183Z,100736.39
2022-09-06T03:23:49.650Z,100734.55
2022-09-06T03:26:20.408Z,100730.17
2022-09-06T03:28:51.558Z,100726.97
2022-09-06T03:31:22.425Z,100728.90
2022-09-06T03:33:53.146Z,100726.83
2022-09-06T03:36:23.776Z,100737.45
2022-09-06T03:38:55.079Z,100736.52
2022-09-06T03:41:25.979Z,100734.08
2022-09-06T03:43:56.813Z,100736.77
2022-09-06T03:46:30.503Z,100735.33
2022-09-06T03:49:02.079Z,100735.83
2022-09-06T03:51:32.795Z,100735.92
2022-09-06T03:54:03.917Z,100736.02
2022-09-06T03:56:34.683Z,100734.33
2022-09-06T03:59:05.743Z,100732.20
2022-09-06T04:01:36.536Z,100732.70
2022-09-06T04:04:07.367Z,100728.86
2022-09-06T04:06:38.117Z,100726.64
2022-09-06T04:09:08.931Z,100721.35
2022-09-06T04:11:39.612Z,100721.64
2022-09-06T04:14:10.522Z,100724.92
2022-09-06T04:16:41.380Z,100719.92
2022-09-06T04:19:12.155Z,100722.04
2022-09-06T04:21:42.851Z,100722.97
2022-09-06T04:24:13.549Z,100721.97
2022-09-06T04:26:44.286Z,100720.15
2022-09-06T04:29:15.038Z,100713.89
2022-09-06T04:31:45.961Z,100715.98
2022-09-06T04:34:17.661Z,100710.73
2022-09-06T04:36:48.648Z,100711.34
2022-09-06T04:39:19.372Z,100709.84
2022-09-06T04:41:50.089Z,100701.75
2022-09-06T04:44:20.988Z,100696.85
2022-09-06T04:46:51.723Z,100688.85
2022-09-06T04:49:23.744Z,100697.43
2022-09-06T04:51:54.451Z,100696.41
2022-09-06T04:54:25.139Z,100693.27
2022-09-06T04:56:55.832Z,100689.18
2022-09-06T04:59:26.614Z,100690.21
2022-09-06T05:01:57.351Z,100690.55
2022-09-06T05:04:28.518Z,100689.99
2022-09-06T05:07:05.014Z,100691.27
2022-09-06T05:09:36.892Z,100690.06
2022-09-06T05:12:08.528Z,100692.86
2022-09-06T05:14:39.292Z,100689.75
2022-09-06T05:17:09.994Z,100691.73
2022-09-06T05:19:40.803Z,100692.45
2022-09-06T05:22:11.957Z,100696.02
2022-09-06T05:24:42.758Z,100701.06
2022-09-06T05:27:14.386Z,100707.67
2022-09-06T05:29:45.232Z,100703.95
2022-09-06T05:32:21.689Z,100701.41
2022-09-06T05:34:52.533Z,100699.77
2022-09-06T05:37:23.403Z,100697.19
2022-09-06T05:39:54.241Z,100694.96
2022-09-06T05:42:25.066Z,100687.66
2022-09-06T05:44:55.870Z,100681.20
2022-09-06T05:47:26.628Z,100682.32
2022-09-06T05:49:58.023Z,100679.60
2022-09-06T05:52:29.074Z,100681.31
2022-09-06T05:54:59.838Z,100687.67
2022-09-06T05:57:30.569Z,100692.02
2022-09-06T06:00:01.560Z,100695.52
2022-09-06T06:02:42.213Z,100696.52
2022-09-06T06:05:13.239Z,100692.09
2022-09-06T06:07:44.267Z,100686.98
2022-09-06T06:10:14.971Z,100684.13
2022-09-06T06:12:45.672Z,100684.16
2022-09-06T06:15:16.594Z,100683.47
2022-09-06T06:17:47.294Z,100683.19
2022-09-06T06:20:18.054Z,100680.77
2022-09-06T06:22:48.751Z,100672.75
2022-09-06T06:25:23.144Z,100672.66
2022-09-06T06:27:53.954Z,100665.48
2022-09-06T06:30:24.747Z,100669.39
2022-09-06T06:32:55.536Z,100679.69
2022-09-06T06:35:26.435Z,100678.11
2022-09-06T06:37:57.442Z,100678.02
2022-09-06T06:40:28.104Z,100668.69
2022-09-06T06:43:00.428Z,100669.65
2022-09-06T06:45:31.646Z,100670.48
2022-09-06T06:48:02.906Z,100671.83
2022-09-06T06:50:33.641Z,100676.14
2022-09-06T06:53:04.404Z,100674.44
2022-09-06T06:55:35.572Z,100678.44
2022-09-06T06:58:06.365Z,100673.36
2022-09-06T07:00:37.168Z,100676.41
2022-09-06T07:03:08.065Z,100673.85
2022-09-06T07:08:30.011Z,100676.70
2022-09-06T07:11:00.833Z,100677.66
2022-09-06T07:13:33.894Z,100680.65
2022-09-06T07:16:13.882Z,100677.20
2022-09-06T07:18:45.926Z,100678.09
2022-09-06T07:24:09.306Z,100675.73
2022-09-06T07:26:41.859Z,100676.77
2022-09-06T07:29:12.626Z,100677.16
2022-09-06T07:34:37.721Z,100678.35
2022-09-06T07:37:08.620Z,100680.95
2022-09-06T07:39:39.925Z,100677.15
2022-09-06T07:42:11.174Z,100675.66
2022-09-06T07:44:41.906Z,100671.90
2022-09-06T07:53:13.007Z,100684.23
2022-09-06T07:55:45.090Z,100686.44
2022-09-06T07:58:15.944Z,100684.02
2022-09-06T08:00:46.807Z,100684.77
2022-09-06T08:03:17.579Z,100683.58
2022-09-06T08:11:31.729Z,100679.39
2022-09-06T08:14:05.359Z,100679.31
2022-09-06T08:16:38.139Z,100679.33
2022-09-06T08:19:11.004Z,100678.70
2022-09-06T08:21:42.319Z,100683.67
2022-09-06T08:24:13.053Z,100685.95
2022-09-06T08:26:43.933Z,100690.67
2022-09-06T08:29:15.127Z,100692.08
2022-09-06T08:31:46.892Z,100694.64
2022-09-06T08:34:17.801Z,100699.90
2022-09-06T08:36:48.533Z,100697.30
2022-09-06T08:39:19.612Z,100695.41
2022-09-06T08:41:55.750Z,100690.28
2022-09-06T08:47:22.115Z,100680.25
2022-09-06T08:49:56.279Z,100673.08
2022-09-06T08:52:54.470Z,100667.27
2022-09-06T08:55:42.971Z,100670.04
2022-09-06T08:58:26.768Z,100668.88
2022-09-06T09:01:04.728Z,100665.95
2022-09-06T09:03:36.650Z,100659.96
2022-09-06T09:06:10.210Z,100657.20
2022-09-06T09:08:48.973Z,100657.58
2022-09-06T09:11:22.479Z,100655.72
2022-09-06T09:13:59.944Z,100651.46
2022-09-06T09:16:30.766Z,100648.26
2022-09-06T09:19:04.110Z,100644.85
2022-09-06T09:21:38.232Z,100646.54
2022-09-06T09:24:11.285Z,100642.35
2022-09-06T09:26:51.100Z,100635.78
2022-09-06T09:29:27.463Z,100637.35
2022-09-06T09:31:59.863Z,100636.61
2022-09-06T09:34:35.860Z,100637.21
2022-09-06T09:40:19.906Z,100640.44
2022-09-06T09:42:51.565Z,100637.84
2022-09-06T09:45:29.299Z,100637.88
2022-09-06T09:48:16.691Z,100626.17
2022-09-06T09:50:47.470Z,100617.98
2022-09-06T09:53:21.011Z,100613.13
2022-09-06T09:55:56.324Z,100605.74
2022-09-06T09:58:34.839Z,100602.66
2022-09-06T10:01:24.012Z,100598.09
2022-09-06T10:07:10.635Z,100594.52
2022-09-06T10:09:43.935Z,100594.05
2022-09-06T10:12:19.837Z,100590.96
2022-09-06T10:14:51.271Z,100590.27
2022-09-06T10:17:30.809Z,100595.36
2022-09-06T10:20:05.176Z,100592.98
2022-09-06T10:22:44.992Z,100592.63
2022-09-06T10:25:31.114Z,100590.52
2022-09-06T10:28:31.620Z,100586.36
2022-09-06T10:31:47.600Z,100583.84
2022-09-06T10:34:42.825Z,100582.48
2022-09-06T10:37:26.410Z,100582.91
2022-09-06T10:40:05.093Z,100582.13
2022-09-06T10:42:44.123Z,100579.66
2022-09-06T10:45:37.282Z,100576.58
2022-09-06T10:48:15.032Z,100575.06
2022-09-06T10:50:51.548Z,100576.05
2022-09-06T10:53:37.800Z,100570.97
2022-09-06T10:56:12.163Z,100571.73
2022-09-06T11:01:44.100Z,100561.17
2022-09-06T11:04:24.311Z,100568.56
2022-09-06T11:07:01.605Z,100565.31
2022-09-06T11:09:36.790Z,100561.80
2022-09-06T11:12:13.516Z,100558.64
2022-09-06T11:14:44.294Z,100558.34
2022-09-06T11:17:23.150Z,100551.46
2022-09-06T11:20:03.576Z,100548.09
2022-09-06T11:22:58.019Z,100543.19
2022-09-06T11:25:59.353Z,100540.34
2022-09-06T11:28:36.557Z,100538.70
2022-09-06T11:34:20.195Z,100537.84
2022-09-06T11:36:52.902Z,100538.59
2022-09-06T11:43:04.376Z,100531.22
2022-09-06T11:45:47.701Z,100533.98
2022-09-06T11:49:03.395Z,100534.67
2022-09-06T11:51:40.147Z,100524.84
2022-09-06T11:54:25.337Z,100525.89
2022-09-06T11:57:00.931Z,100526.13
2022-09-06T11:59:40.302Z,100529.93
2022-09-06T12:02:33.167Z,100519.88
2022-09-06T12:05:27.844Z,100516.66
2022-09-06T12:08:32.281Z,100509.82
2022-09-06T12:11:22.834Z,100508.27
2022-09-06T12:13:58.044Z,100504.75
2022-09-06T12:17:07.224Z,100495.50
2022-09-06T12:19:49.277Z,100487.23
2022-09-06T12:22:56.754Z,100482.50
2022-09-06T12:25:57.933Z,100478.46
2022-09-06T12:28:36.241Z,100477.02
2022-09-06T12:31:35.874Z,100479.39
2022-09-06T12:34:13.547Z,100482.74
2022-09-06T12:36:57.761Z,100477.47
2022-09-06T12:39:29.088Z,100478.80
2022-09-06T12:42:02.127Z,100476.81
2022-09-06T12:44:36.526Z,100466.01
2022-09-06T12:47:11.874Z,100466.69
2022-09-06T12:49:42.548Z,100473.73
2022-09-06T12:52:15.673Z,100476.30
2022-09-06T12:54:49.280Z,100473.67
2022-09-06T12:57:24.139Z,100470.85
2022-09-06T12:59:57.002Z,100470.17
2022-09-06T13:02:41.256Z,100469.60
2022-09-06T13:05:15.267Z,100466.83
2022-09-06T13:07:51.637Z,100467.71
2022-09-06T13:10:25.533Z,100467.66
2022-09-06T13:12:58.226Z,100468.98
2022-09-06T13:15:31.939Z,100467.42
2022-09-06T13:18:23.838Z,100471.69
2022-09-06T13:21:05.870Z,100466.58
2022-09-06T13:23:45.271Z,100463.67
2022-09-06T13:26:16.819Z,100461.41
2022-09-06T13:28:47.517Z,100463.38
2022-09-06T13:31:23.519Z,100476.16
2022-09-06T13:34:00.605Z,100487.92
2022-09-06T13:36:32.529Z,100507.48
2022-09-06T13:39:03.653Z,100532.45
2022-09-06T13:41:42.909Z,100547.42
2022-09-06T13:44:31.123Z,100557.88
2022-09-06T13:47:02.412Z,100558.66
2022-09-06T13:49:34.101Z,100571.80
2022-09-06T13:52:06.256Z,100578.30
2022-09-06T13:54:37.185Z,100588.75
2022-09-06T13:57:09.808Z,100602.52
2022-09-06T13:59:42.096Z,100608.79
2022-09-06T14:02:17.775Z,100617.80
2022-09-06T14:04:48.621Z,100617.98
2022-09-06T14:07:19.308Z,100618.49
2022-09-06T14:09:51.277Z,100622.02
2022-09-06T14:12:20.458Z,100614.89
2022-09-06T14:14:51.257Z,100614.35
2022-09-06T14:17:22.162Z,100614.83
2022-09-06T14:19:52.899Z,100620.19
2022-09-06T14:22:23.708Z,100616.70
2022-09-06T14:24:55.268Z,100609.85
2022-09-06T14:27:26.183Z,100604.91
2022-09-06T14:29:56.876Z,100600.09
2022-09-06T14:32:27.903Z,100595.54
2022-09-06T14:34:58.662Z,100593.13
2022-09-06T14:37:29.459Z,100588.55
2022-09-06T14:40:00.405Z,100577.98
2022-09-06T14:42:31.345Z,100571.98
2022-09-06T14:45:02.152Z,100568.39
2022-09-06T14:47:33.429Z,100558.73
2022-09-06T14:50:04.771Z,100549.13
2022-09-06T14:52:35.922Z,100542.68
2022-09-06T14:55:07.723Z,100538.57
2022-09-06T14:57:38.682Z,100539.20
2022-09-06T15:00:12.058Z,100536.08
2022-09-06T15:02:44.154Z,100533.39
2022-09-06T15:05:15.467Z,100530.44
2022-09-06T15:07:46.781Z,100525.14
2022-09-06T15:10:19.441Z,100522.84
2022-09-06T15:12:50.169Z,100520.77
2022-09-06T15:15:21.052Z,100517.05
2022-09-06T15:17:51.849Z,100510.16
2022-09-06T15:20:22.588Z,100507.08
2022-09-06T15:23:15.161Z,100503.05
2022-09-06T15:25:50.515Z,100501.84
2022-09-06T15:28:22.009Z,100497.84
2022-09-06T15:30:52.797Z,100496.54
2022-09-06T15:33:23.970Z,100491.66
2022-09-06T15:35:58.206Z,100488.61
2022-09-06T15:38:29.081Z,100483.41
2022-09-06T15:41:08.606Z,100471.48
2022-09-06T15:43:42.193Z,100469.95
2022-09-06T15:46:12.967Z,100462.52
2022-09-06T15:48:46.329Z,100467.60
2022-09-06T15:51:20.125Z,100465.77
2022-09-06T15:53:50.943Z,100469.90
2022-09-06T15:56:21.738Z,100475.70
2022-09-06T15:58:52.534Z,100471.91
2022-09-06T16:01:25.766Z,100466.59
2022-09-06T16:04:03.763Z,100476.48
2022-09-06T16:06:33.809Z,100480.17
2022-09-06T16:09:07.865Z,100480.04
2022-09-06T16:11:39.572Z,100482.61
2022-09-06T16:14:13.250Z,100483.95
2022-09-06T16:16:44.391Z,100487.77
2022-09-06T16:19:15.655Z,100489.52
2022-09-06T16:21:46.405Z,100490.51
2022-09-06T16:24:18.601Z,100492.29
2022-09-06T16:26:49.719Z,100486.35
2022-09-06T16:29:21.227Z,100479.34
2022-09-06T16:31:59.524Z,100479.70
2022-09-06T16:34:30.431Z,100475.34
2022-09-06T16:37:04.128Z,100479.32
2022-09-06T16:39:34.964Z,100481.61
2022-09-06T16:42:06.299Z,100481.24
2022-09-06T16:44:37.781Z,100477.09
2022-09-06T16:47:08.789Z,100473.70
2022-09-06T16:49:39.573Z,100475.06
2022-09-06T16:52:10.413Z,100473.31
2022-09-06T16:54:41.572Z,100472.53
2022-09-06T16:57:12.578Z,100470.48
2022-09-06T16:59:43.361Z,100472.28
2022-09-06T17:02:14.276Z,100465.34
2022-09-06T17:04:45.188Z,100460.21
2022-09-06T17:07:16.140Z,100458.42
2022-09-06T17:09:47.220Z,100452.58
2022-09-06T17:12:18.004Z,100452.17
2022-09-06T17:14:48.774Z,100455.36
2022-09-06T17:17:19.564Z,100455.60
2022-09-06T17:19:50.460Z,100451.73
2022-09-06T17:22:21.766Z,100452.92
2022-09-06T17:24:52.700Z,100458.70
2022-09-06T17:27:24.220Z,100461.95
2022-09-06T17:29:55.438Z,100457.50
2022-09-06T17:32:27.202Z,100460.63
2022-09-06T17:34:58.472Z,100459.47
2022-09-06T17:37:29.749Z,100459.02
2022-09-06T17:40:01.266Z,100458.61
2022-09-06T17:42:32.843Z,100455.88
2022-09-06T17:45:04.122Z,100458.50
2022-09-06T17:47:35.744Z,100460.10
2022-09-06T17:50:08.963Z,100460.46
2022-09-06T17:52:39.888Z,100466.92
2022-09-06T17:55:11.920Z,100472.03
2022-09-06T17:57:42.643Z,100474.00
2022-09-06T18:00:16.099Z,100481.31
2022-09-06T18:02:46.839Z,100482.42
2022-09-06T18:05:18.674Z,100481.87
2022-09-06T18:07:49.765Z,100485.42
2022-09-06T18:10:21.156Z,100485.39
2022-09-06T18:12:52.068Z,100488.18
2022-09-06T18:15:22.955Z,100490.68
2022-09-06T18:17:53.762Z,100493.49
2022-09-06T18:20:25.321Z,100488.26
2022-09-06T18:22:56.801Z,100485.91
2022-09-06T18:25:28.456Z,100484.05
2022-09-06T18:27:59.290Z,100486.52
2022-09-06T18:30:30.525Z,100483.09
2022-09-06T18:33:02.116Z,100482.46
2022-09-06T18:35:34.044Z,100479.95
2022-09-06T18:38:05.384Z,100470.59
2022-09-06T18:40:42.375Z,100468.38
2022-09-06T18:43:13.994Z,100464.36
2022-09-06T18:45:48.740Z,100465.20
2022-09-06T18:48:20.807Z,100465.58
2022-09-06T18:50:54.876Z,100466.84
2022-09-06T18:53:28.403Z,100461.14
2022-09-06T18:56:02.167Z,100458.26
2022-09-06T18:58:34.499Z,100457.39
2022-09-06T19:01:14.020Z,100458.11
2022-09-06T19:03:46.047Z,100465.05
2022-09-06T19:06:20.624Z,100466.86
2022-09-06T19:08:54.306Z,100465.75
2022-09-06T19:11:26.151Z,100461.73
2022-09-06T19:13:58.808Z,100461.13
2022-09-06T19:16:31.447Z,100461.94
2022-09-06T19:19:07.820Z,100464.38
2022-09-06T19:21:42.045Z,100468.56
2022-09-06T19:24:15.594Z,100467.92
2022-09-06T19:26:47.152Z,100468.86
2022-09-06T19:29:19.719Z,100468.92
2022-09-06T19:31:50.809Z,100471.81
2022-09-06T19:34:22.738Z,100475.09
2022-09-06T19:36:55.591Z,100473.39
2022-09-06T19:39:34.771Z,100475.73
2022-09-06T19:42:09.103Z,100474.48
2022-09-06T19:44:39.851Z,100472.52
2022-09-06T19:47:10.740Z,100469.84
2022-09-06T19:49:41.738Z,100467.15
2022-09-06T19:52:12.687Z,100469.71
2022-09-06T19:54:43.903Z,100461.31
2022-09-06T19:57:15.578Z,100457.11
2022-09-06T19:59:46.493Z,100454.20
2022-09-06T20:02:17.316Z,100446.63
2022-09-06T20:04:48.055Z,100446.70
2022-09-06T20:07:18.842Z,100445.17
2022-09-06T20:09:52.541Z,100442.00
2022-09-06T20:12:24.344Z,100439.75
2022-09-06T20:14:55.192Z,100435.23
2022-09-06T20:17:34.460Z,100442.15
2022-09-06T20:20:06.853Z,100431.56
2022-09-06T20:22:36.751Z,100432.13
2022-09-06T20:25:09.650Z,100435.42
2022-09-06T20:27:44.369Z,100432.09
2022-09-06T20:30:16.972Z,100430.38
2022-09-06T20:32:47.773Z,100429.42
2022-09-06T20:35:19.421Z,100431.45
2022-09-06T20:37:50.702Z,100431.38
2022-09-06T20:40:21.811Z,100433.20
2022-09-06T20:42:53.288Z,100432.04
2022-09-06T20:45:25.375Z,100431.17
2022-09-06T20:47:56.966Z,100424.90
2022-09-06T20:50:27.785Z,100417.45
2022-09-06T20:52:58.606Z,100414.44
2022-09-06T20:55:29.347Z,100412.39
2022-09-06T20:58:00.216Z,100408.35
2022-09-06T21:00:31.057Z,100409.04
2022-09-06T21:03:01.823Z,100400.23
2022-09-06T21:05:32.607Z,100399.20
2022-09-06T21:08:03.680Z,100398.16
2022-09-06T21:10:34.950Z,100395.23
2022-09-06T21:13:05.899Z,100388.00
2022-09-06T21:15:37.848Z,100382.62
2022-09-06T21:18:09.321Z,100380.77
2022-09-06T21:20:40.105Z,100376.30
2022-09-06T21:23:10.850Z,100372.15
2022-09-06T21:25:41.677Z,100373.16
2022-09-06T21:28:12.571Z,100373.05
2022-09-06T21:30:43.372Z,100374.00
2022-09-06T21:33:14.095Z,100368.27
2022-09-06T21:35:44.912Z,100371.15
2022-09-06T21:38:16.256Z,100369.28
2022-09-06T21:40:47.026Z,100371.40
2022-09-06T21:43:17.738Z,100372.52
2022-09-06T21:45:48.804Z,100373.55
2022-09-06T21:48:19.916Z,100370.04
2022-09-06T21:50:51.210Z,100364.89
2022-09-06T21:53:23.710Z,100362.70
2022-09-06T21:56:00.164Z,100367.99
2022-09-06T21:58:31.834Z,100366.71
2022-09-06T22:01:04.815Z,100366.56
2022-09-06T22:03:39.175Z,100361.79
2022-09-06T22:06:15.147Z,100358.75
2022-09-06T22:08:47.163Z,100355.17
2022-09-06T22:11:19.647Z,100346.08
2022-09-06T22:13:51.546Z,100344.67
2022-09-06T22:16:24.995Z,100342.05
2022-09-06T22:18:56.271Z,100342.02
2022-09-06T22:21:27.211Z,100347.29
2022-09-06T22:24:00.211Z,100349.52
2022-09-06T22:26:32.583Z,100349.38
2022-09-06T22:29:05.762Z,100349.34
2022-09-06T22:31:37.449Z,100346.02
2022-09-06T22:34:08.867Z,100353.48
2022-09-06T22:36:40.006Z,100348.27
2022-09-06T22:39:11.106Z,100352.55
2022-09-06T22:41:42.054Z,100354.07
2022-09-06T22:44:13.420Z,100351.25
2022-09-06T22:46:44.715Z,100349.51
2022-09-06T22:49:16.047Z,100341.55
2022-09-06T22:51:46.921Z,100349.66
2022-09-06T22:54:17.809Z,100353.04
2022-09-06T22:56:48.567Z,100356.67
2022-09-06T22:59:19.706Z,100358.97
2022-09-06T23:01:52.260Z,100357.05
2022-09-06T23:04:23.445Z,100359.22
2022-09-06T23:06:54.323Z,100357.04
2022-09-06T23:09:25.486Z,100357.08
2022-09-06T23:11:56.292Z,100358.18
2022-09-06T23:14:28.464Z,100356.33
2022-09-06T23:16:57.714Z,100350.88
2022-09-06T23:19:28.565Z,100348.89
2022-09-06T23:21:59.350Z,100349.05
2022-09-06T23:24:30.098Z,100350.31
2022-09-06T23:27:02.157Z,100348.31
2022-09-06T23:29:33.029Z,100347.14
2022-09-06T23:32:04.290Z,100342.30
2022-09-06T23:34:35.012Z,100338.20
2022-09-06T23:37:07.049Z,100334.04
2022-09-06T23:39:37.897Z,100332.57
2022-09-06T23:42:09.269Z,100328.36
2022-09-06T23:44:39.987Z,100329.14
2022-09-06T23:47:10.769Z,100326.41
2022-09-06T23:49:41.615Z,100323.05
2022-09-06T23:52:12.458Z,100324.27
2022-09-06T23:54:43.182Z,100324.23
2022-09-06T23:57:13.946Z,100321.80
2022-09-06T23:59:44.743Z,100321.83
